Time;durP1;ratioP1;P1;durP2;ratioP2;P2;SDS_P1;SDS_P2;PMS_P1;PMS_P2;Temp;Humidity;BMP_temperature;BMP_pressure;BME280_temperature;BME280_humidity;BME280_pressure;Samples;Min_cycle;Max_cycle;Signal;HPM_P1;HPM_P2
2023/04/26 22:13:16;;;;;;;3.17;1.30;;;;;;;10.08;79.82;98901.63;5630551;23;20502;-88
2023/04/26 22:15:41;;;;;;;2.88;1.80;;;;;;;10.35;79.38;98935.44;4931031;28;20047;-88
2023/04/26 22:18:07;;;;;;;2.80;1.60;;;;;;;10.30;79.98;98935.47;4929511;28;20034;-89
2023/04/26 22:20:32;;;;;;;1.50;1.20;;;;;;;10.35;79.78;98937.31;4928429;28;20050;-88
2023/04/26 22:22:58;;;;;;;3.28;1.40;;;;;;;10.60;78.17;98949.84;4944152;28;20046;-87
2023/04/26 22:25:25;;;;;;;1.52;1.27;;;;;;;10.45;79.11;98934.59;4927946;28;20109;-88
2023/04/26 22:27:51;;;;;;;1.52;1.35;;;;;;;10.49;79.72;98944.50;4928176;28;20042;-88
2023/04/26 22:30:16;;;;;;;2.35;1.67;;;;;;;10.53;79.24;98958.22;4928119;28;20027;-89
2023/04/26 22:32:42;;;;;;;2.05;1.40;;;;;;;10.41;79.75;98963.94;4928338;28;20038;-89
2023/04/26 22:35:07;;;;;;;4.50;1.60;;;;;;;10.39;78.54;98951.84;4928205;28;20398;-88
2023/04/26 22:37:33;;;;;;;2.22;1.30;;;;;;;10.52;77.98;98975.44;4944079;28;20062;-89
2023/04/26 22:39:58;;;;;;;2.83;1.52;;;;;;;10.39;78.11;98959.91;4927911;28;20042;-89
2023/04/26 22:42:23;;;;;;;4.40;1.70;;;;;;;10.31;79.10;98962.13;4928625;28;20489;-89
2023/04/26 22:44:49;;;;;;;2.20;1.70;;;;;;;10.41;78.19;98972.00;4926897;28;20561;-90
2023/04/26 22:47:17;;;;;;;3.03;1.70;;;;;;;10.47;77.98;98980.88;4932197;28;20039;-88
2023/04/26 22:49:43;;;;;;;2.63;1.77;;;;;;;10.58;76.27;98974.34;4928267;28;20055;-89
2023/04/26 22:52:08;;;;;;;2.08;1.55;;;;;;;10.51;76.24;98974.66;4928639;28;20046;-89
2023/04/26 22:54:34;;;;;;;1.98;1.50;;;;;;;10.39;76.64;98966.09;4927794;28;20122;-89
2023/04/26 22:56:59;;;;;;;2.30;1.60;;;;;;;10.30;77.07;98965.88;4943669;28;20042;-89
2023/04/26 22:59:25;;;;;;;2.25;1.55;;;;;;;10.51;77.00;98984.63;4926882;28;20039;-88
2023/04/26 23:01:50;;;;;;;1.98;1.48;;;;;;;10.45;76.82;98981.13;4927656;28;20477;-88
2023/04/26 23:04:15;;;;;;;1.65;1.33;;;;;;;10.39;74.49;98997.59;4927452;28;20035;-87
2023/04/26 23:06:42;;;;;;;3.65;1.45;;;;;;;10.28;76.05;98991.44;4943184;28;20045;-89
2023/04/26 23:09:08;;;;;;;2.22;1.52;;;;;;;10.18;76.55;98991.47;4943712;28;20038;-89
2023/04/26 23:11:33;;;;;;;1.40;1.27;;;;;;;10.27;76.53;98998.69;4943449;28;20037;-89
2023/04/26 23:14:00;;;;;;;1.23;1.10;;;;;;;10.29;76.21;98990.31;4934525;28;20050;-89
2023/04/26 23:16:26;;;;;;;1.88;1.30;;;;;;;10.35;75.52;98994.63;4928380;28;20034;-89
2023/04/26 23:18:51;;;;;;;1.95;1.27;;;;;;;10.38;76.60;98991.41;4927858;28;20417;-89
2023/04/26 23:21:17;;;;;;;1.67;1.20;;;;;;;10.30;76.18;98979.34;4927399;28;20533;-89
2023/04/26 23:23:42;;;;;;;1.30;1.10;;;;;;;10.30;75.68;98989.28;4927976;28;20043;-88
2023/04/26 23:26:08;;;;;;;2.00;1.30;;;;;;;10.34;76.86;98989.56;4927213;28;20046;-89
2023/04/26 23:28:33;;;;;;;1.50;1.20;;;;;;;10.25;76.43;98982.03;4927871;28;20453;-88
2023/04/26 23:30:59;;;;;;;1.90;1.33;;;;;;;10.39;76.59;99000.28;4927950;28;20046;-89
2023/04/26 23:33:24;;;;;;;2.25;1.33;;;;;;;10.43;76.60;98993.28;4927562;28;20046;-89
2023/04/26 23:35:53;;;;;;;2.20;1.20;;;;;;;10.35;76.91;98983.88;4927663;28;20026;-89
2023/04/26 23:38:19;;;;;;;2.72;1.55;;;;;;;10.16;77.00;98982.88;4927231;28;20051;-89
2023/04/26 23:40:45;;;;;;;2.03;1.27;;;;;;;10.37;77.29;99002.44;4927198;28;20054;-89
2023/04/26 23:43:11;;;;;;;2.72;1.60;;;;;;;10.34;77.45;99006.50;4928640;28;20038;-88
2023/04/26 23:45:37;;;;;;;1.70;1.30;;;;;;;10.36;76.10;99001.66;4959460;28;20042;-88
2023/04/26 23:48:03;;;;;;;3.00;1.27;;;;;;;10.41;74.81;99009.69;4942478;28;20394;-89
2023/04/26 23:50:28;;;;;;;1.50;1.27;;;;;;;10.32;75.12;99008.66;4959264;28;20552;-89
2023/04/26 23:52:53;;;;;;;2.72;1.50;;;;;;;10.26;75.54;99005.16;4958899;28;20038;-89
2023/04/26 23:55:19;;;;;;;3.53;1.35;;;;;;;10.27;76.59;99009.47;4927116;28;20039;-89
2023/04/26 23:57:45;;;;;;;1.70;1.30;;;;;;;10.32;75.49;99000.59;4926542;28;20489;-88
